createdAt,value
2023-02-17T00:01:56.750Z,6.60
2023-02-17T00:06:59.118Z,6.60
2023-02-17T00:12:01.664Z,6.70
2023-02-17T00:17:03.944Z,6.70
2023-02-17T00:22:06.157Z,6.80
2023-02-17T00:27:08.438Z,6.90
2023-02-17T00:32:10.826Z,6.90
2023-02-17T00:37:13.126Z,6.90
2023-02-17T00:42:15.444Z,6.90
2023-02-17T00:47:17.697Z,6.90
2023-02-17T00:52:19.930Z,6.90
2023-02-17T00:57:22.514Z,7.00
2023-02-17T01:02:24.764Z,7.00
2023-02-17T01:07:28.606Z,7.00
2023-02-17T01:12:31.059Z,7.00
2023-02-17T01:17:33.671Z,7.00
2023-02-17T01:22:38.408Z,6.90
2023-02-17T01:27:40.638Z,7.00
2023-02-17T01:32:42.920Z,7.10
2023-02-17T01:37:45.476Z,7.10
2023-02-17T01:42:47.854Z,7.10
2023-02-17T01:48:24.520Z,7.10
2023-02-17T01:53:36.336Z,7.10
2023-02-17T01:58:42.724Z,7.10
2023-02-17T02:03:45.323Z,7.00
2023-02-17T02:09:01.405Z,7.10
2023-02-17T02:14:06.906Z,7.10
2023-02-17T02:19:22.889Z,7.00
2023-02-17T02:24:58.586Z,7.10
2023-02-17T02:30:26.586Z,7.00
2023-02-17T02:35:36.200Z,7.10
2023-02-17T02:40:52.320Z,7.20
2023-02-17T02:45:54.738Z,7.10
2023-02-17T02:51:16.767Z,7.10
2023-02-17T02:56:45.999Z,7.10
2023-02-17T03:02:13.617Z,7.20
2023-02-17T03:07:31.081Z,7.10
2023-02-17T03:12:36.475Z,7.20
2023-02-17T03:17:39.381Z,7.20
2023-02-17T03:22:47.321Z,7.10
2023-02-17T03:27:50.551Z,7.10
2023-02-17T03:32:53.450Z,7.10
2023-02-17T03:37:55.699Z,7.20
2023-02-17T03:42:58.199Z,7.20
2023-02-17T03:48:00.419Z,7.10
2023-02-17T03:53:02.692Z,7.00
2023-02-17T03:58:05.202Z,6.90
2023-02-17T04:03:07.592Z,6.90
2023-02-17T04:08:09.841Z,6.90
2023-02-17T04:13:12.155Z,6.70
2023-02-17T04:18:15.115Z,6.40
2023-02-17T04:23:18.254Z,6.30
2023-02-17T04:28:21.517Z,6.00
2023-02-17T04:33:24.113Z,6.10
2023-02-17T04:38:28.198Z,6.10
2023-02-17T04:43:30.500Z,6.10
2023-02-17T04:48:32.823Z,6.10
2023-02-17T04:53:35.101Z,6.10
2023-02-17T04:58:37.470Z,5.90
2023-02-17T05:03:39.825Z,6.00
2023-02-17T05:08:42.217Z,5.90
2023-02-17T05:13:44.507Z,5.80
2023-02-17T05:18:48.109Z,5.80
2023-02-17T05:23:50.328Z,5.80
2023-02-17T05:28:52.679Z,5.90
2023-02-17T05:33:55.538Z,5.90
2023-02-17T05:38:57.780Z,5.80
2023-02-17T05:44:00.143Z,5.80
2023-02-17T05:49:02.389Z,5.90
2023-02-17T05:54:04.783Z,5.80
2023-02-17T05:59:07.069Z,5.80
2023-02-17T06:04:09.362Z,5.80
2023-02-17T06:09:11.613Z,5.80
2023-02-17T06:14:13.882Z,5.80
2023-02-17T06:19:16.609Z,5.80
2023-02-17T06:24:18.845Z,5.80
2023-02-17T06:29:21.127Z,5.90
2023-02-17T06:34:23.482Z,5.80
2023-02-17T06:39:25.915Z,5.90
2023-02-17T06:44:28.284Z,5.90
2023-02-17T06:49:30.585Z,5.90
2023-02-17T06:54:32.835Z,6.00
2023-02-17T06:59:35.217Z,6.00
2023-02-17T07:04:38.071Z,6.10
2023-02-17T07:09:40.497Z,6.10
2023-02-17T07:14:43.352Z,6.20
2023-02-17T07:19:45.728Z,6.10
2023-02-17T07:24:48.028Z,6.20
2023-02-17T07:29:50.355Z,6.30
2023-02-17T07:34:52.835Z,6.20
2023-02-17T07:39:57.136Z,6.30
2023-02-17T07:44:59.577Z,6.30
2023-02-17T07:50:02.026Z,6.40
2023-02-17T07:55:04.776Z,6.40
2023-02-17T08:00:10.506Z,6.40
2023-02-17T08:05:15.941Z,6.50
2023-02-17T08:10:36.797Z,6.50
2023-02-17T08:15:39.640Z,6.50
2023-02-17T08:20:42.112Z,6.50
2023-02-17T08:25:44.542Z,6.50
2023-02-17T08:30:47.172Z,6.60
2023-02-17T08:35:49.667Z,6.60
2023-02-17T08:40:52.004Z,6.60
2023-02-17T08:45:54.351Z,6.60
2023-02-17T08:50:56.687Z,6.60
2023-02-17T08:55:59.248Z,6.60
2023-02-17T09:01:02.087Z,6.70
2023-02-17T09:06:05.844Z,6.80
2023-02-17T09:11:19.106Z,6.80
2023-02-17T09:16:24.439Z,6.80
2023-02-17T09:21:27.139Z,6.80
2023-02-17T09:26:29.668Z,6.90
2023-02-17T09:31:33.797Z,6.90
2023-02-17T09:36:40.117Z,6.90
2023-02-17T09:41:58.394Z,6.90
2023-02-17T09:47:24.250Z,7.00
2023-02-17T09:52:32.496Z,7.10
2023-02-17T09:58:47.326Z,7.10
2023-02-17T10:16:48.854Z,7.30
2023-02-17T10:22:15.133Z,7.60
2023-02-17T10:27:25.983Z,7.50
2023-02-17T10:32:29.363Z,7.60
2023-02-17T10:37:45.596Z,7.70
2023-02-17T10:42:51.618Z,7.80
2023-02-17T10:48:06.037Z,7.70
2023-02-17T10:53:17.790Z,7.90
2023-02-17T10:58:26.628Z,7.90
2023-02-17T11:03:32.801Z,8.10
2023-02-17T11:08:40.691Z,8.00
2023-02-17T11:14:06.229Z,8.20
2023-02-17T11:19:31.116Z,8.20
2023-02-17T11:24:35.203Z,8.20
2023-02-17T11:29:38.043Z,8.20
2023-02-17T11:34:42.842Z,8.30
2023-02-17T11:39:51.386Z,8.30
2023-02-17T11:44:56.898Z,8.30
2023-02-17T11:50:40.691Z,8.30
2023-02-17T11:55:51.526Z,8.30
2023-02-17T12:01:11.728Z,8.10
2023-02-17T12:06:17.276Z,8.20
2023-02-17T12:12:03.972Z,8.10
2023-02-17T12:17:33.978Z,8.20
2023-02-17T12:22:46.650Z,8.20
2023-02-17T12:28:16.448Z,8.20
2023-02-17T12:33:21.712Z,8.30
2023-02-17T12:38:37.131Z,8.20
2023-02-17T12:43:47.994Z,8.30
2023-02-17T12:49:02.903Z,8.30
2023-02-17T12:54:15.113Z,8.40
2023-02-17T12:59:21.919Z,8.40
2023-02-17T13:04:26.242Z,8.40
2023-02-17T13:09:34.393Z,8.40
2023-02-17T13:14:48.722Z,8.40
2023-02-17T13:20:12.151Z,8.50
2023-02-17T13:25:28.973Z,8.50
2023-02-17T13:30:43.524Z,8.50
2023-02-17T13:35:46.309Z,8.50
2023-02-17T13:40:51.960Z,8.50
2023-02-17T13:46:05.925Z,8.50
2023-02-17T13:51:26.346Z,8.50
2023-02-17T13:56:30.957Z,8.50
2023-02-17T14:01:37.166Z,8.40
2023-02-17T14:06:42.707Z,8.40
2023-02-17T14:11:45.252Z,8.50
2023-02-17T14:16:58.746Z,8.40
2023-02-17T14:22:05.677Z,8.40
2023-02-17T14:27:09.918Z,8.40
2023-02-17T14:32:30.083Z,8.50
2023-02-17T14:37:36.734Z,8.50
2023-02-17T14:42:38.984Z,8.50
2023-02-17T14:47:42.625Z,8.50
2023-02-17T14:52:49.702Z,8.50
2023-02-17T14:57:52.095Z,8.50
2023-02-17T15:02:54.497Z,8.50
2023-02-17T15:08:00.279Z,8.50
2023-02-17T15:13:02.618Z,8.60
2023-02-17T15:18:05.090Z,8.60
2023-02-17T15:23:15.706Z,8.60
2023-02-17T15:28:20.102Z,8.70
2023-02-17T15:33:24.620Z,8.70
2023-02-17T15:38:27.226Z,8.80
2023-02-17T15:48:40.246Z,8.80
2023-02-17T15:53:42.848Z,9.00
2023-02-17T15:58:45.869Z,9.00
2023-02-17T16:03:48.440Z,9.20
2023-02-17T16:08:50.763Z,9.10
2023-02-17T16:13:53.246Z,9.10
2023-02-17T16:18:55.663Z,9.30
2023-02-17T16:23:59.897Z,9.20
2023-02-17T16:29:03.788Z,9.20
2023-02-17T16:34:06.439Z,9.20
2023-02-17T16:39:14.436Z,9.40
2023-02-17T16:44:18.739Z,9.40
2023-02-17T16:49:33.712Z,9.60
2023-02-17T16:54:36.051Z,9.60
2023-02-17T16:59:38.284Z,9.60
2023-02-17T17:04:40.969Z,9.60
2023-02-17T17:09:48.851Z,9.70
2023-02-17T17:14:58.543Z,9.70
2023-02-17T17:20:00.865Z,9.80
2023-02-17T17:25:03.231Z,9.80
2023-02-17T17:30:09.568Z,9.80
2023-02-17T17:35:12.443Z,9.80
2023-02-17T17:40:20.847Z,10.00
2023-02-17T17:45:24.662Z,10.10
2023-02-17T17:50:26.973Z,10.10
2023-02-17T17:55:29.203Z,10.10
2023-02-17T18:00:31.691Z,10.30
2023-02-17T18:05:36.151Z,10.20
2023-02-17T18:10:40.148Z,10.20
2023-02-17T18:15:43.442Z,10.20
2023-02-17T18:20:45.927Z,10.30
2023-02-17T18:25:48.202Z,10.30
2023-02-17T18:30:50.563Z,10.40
2023-02-17T18:35:53.456Z,10.50
2023-02-17T18:40:55.701Z,10.50
2023-02-17T18:45:58.786Z,10.70
2023-02-17T18:51:10.019Z,10.80
2023-02-17T18:56:15.603Z,10.70
2023-02-17T19:01:20.772Z,10.80
2023-02-17T19:06:26.443Z,10.90
2023-02-17T19:11:28.773Z,10.90
2023-02-17T19:16:32.320Z,10.90
2023-02-17T19:21:36.350Z,11.10
2023-02-17T19:26:38.763Z,10.80
2023-02-17T19:31:41.073Z,10.70
2023-02-17T19:36:43.534Z,10.70
2023-02-17T19:41:46.118Z,10.30
2023-02-17T19:46:48.517Z,9.60
2023-02-17T19:51:50.823Z,9.40
2023-02-17T19:56:53.203Z,8.50
2023-02-17T20:01:55.660Z,7.90
2023-02-17T20:06:58.639Z,7.90
2023-02-17T20:12:00.913Z,7.80
2023-02-17T20:17:03.169Z,7.70
2023-02-17T20:22:07.020Z,7.50
2023-02-17T20:27:09.448Z,7.50
2023-02-17T20:32:11.828Z,7.40
2023-02-17T20:37:14.244Z,7.40
2023-02-17T20:42:16.588Z,7.30
2023-02-17T20:47:18.900Z,7.30
2023-02-17T20:52:21.256Z,7.20
2023-02-17T20:57:23.638Z,7.30
2023-02-17T21:02:25.940Z,7.40
2023-02-17T21:07:28.199Z,7.50
2023-02-17T21:12:30.489Z,7.40
2023-02-17T21:17:32.839Z,7.40
2023-02-17T21:22:35.647Z,7.40
2023-02-17T21:27:38.548Z,7.40
2023-02-17T21:32:40.889Z,7.30
2023-02-17T21:37:43.858Z,7.50
2023-02-17T21:43:04.926Z,7.40
2023-02-17T21:48:07.723Z,7.40
2023-02-17T21:53:10.005Z,7.50
2023-02-17T21:58:14.370Z,7.30
2023-02-17T22:03:16.622Z,7.30
2023-02-17T22:08:18.954Z,7.20
2023-02-17T22:13:21.240Z,7.10
2023-02-17T22:18:23.746Z,7.10
2023-02-17T22:23:25.981Z,7.20
2023-02-17T22:28:28.264Z,7.20
2023-02-17T22:33:30.626Z,7.20
2023-02-17T22:38:33.220Z,7.30
2023-02-17T22:43:38.115Z,7.40
2023-02-17T22:48:40.391Z,7.30
2023-02-17T22:53:43.159Z,7.30
2023-02-17T22:58:45.548Z,7.40
2023-02-17T23:03:52.982Z,7.30
2023-02-17T23:08:57.018Z,7.30
2023-02-17T23:13:59.277Z,7.40
2023-02-17T23:19:01.926Z,7.40
2023-02-17T23:24:04.781Z,7.50
2023-02-17T23:29:07.106Z,7.50
2023-02-17T23:34:11.194Z,7.50
2023-02-17T23:39:15.184Z,7.50
2023-02-17T23:44:18.027Z,7.60
2023-02-17T23:49:20.340Z,7.80
2023-02-17T23:54:22.695Z,7.80
2023-02-17T23:59:24.912Z,7.70
